sensor_id;sensor_type;location;lat;lon;timestamp;pressure;altitude;pressure_sealevel;temperature;humidity
13867;BME280;7003;46.982;15.248;2023-02-20T00:00:47;97875.03;;;5.07;100.00
13867;BME280;7003;46.982;15.248;2023-02-20T00:03:15;97875.81;;;5.08;100.00
13867;BME280;7003;46.982;15.248;2023-02-20T00:05:44;97870.69;;;5.31;100.00
13867;BME280;7003;46.982;15.248;2023-02-20T00:08:11;97886.75;;;5.35;100.00
13867;BME280;7003;46.982;15.248;2023-02-20T00:10:39;97879.44;;;5.22;100.00
13867;BME280;7003;46.982;15.248;2023-02-20T00:13:07;97882.84;;;5.27;100.00
13867;BME280;7003;46.982;15.248;2023-02-20T00:15:35;97885.19;;;5.29;100.00
13867;BME280;7003;46.982;15.248;2023-02-20T00:18:02;97896.31;;;5.26;100.00
13867;BME280;7003;46.982;15.248;2023-02-20T00:20:29;97894.78;;;5.15;100.00
13867;BME280;7003;46.982;15.248;2023-02-20T00:22:58;97900.13;;;4.99;100.00
13867;BME280;7003;46.982;15.248;2023-02-20T00:25:25;97900.69;;;4.86;100.00
13867;BME280;7003;46.982;15.248;2023-02-20T00:27:54;97900.19;;;4.79;100.00
13867;BME280;7003;46.982;15.248;2023-02-20T00:30:22;97901.72;;;4.90;100.00
13867;BME280;7003;46.982;15.248;2023-02-20T00:32:55;97909.34;;;4.97;100.00
13867;BME280;7003;46.982;15.248;2023-02-20T00:35:24;97910.44;;;4.91;100.00
13867;BME280;7003;46.982;15.248;2023-02-20T00:37:54;97914.38;;;4.93;100.00
13867;BME280;7003;46.982;15.248;2023-02-20T00:40:22;97912.31;;;4.85;100.00
13867;BME280;7003;46.982;15.248;2023-02-20T00:42:52;97910.19;;;4.87;100.00
13867;BME280;7003;46.982;15.248;2023-02-20T00:45:20;97914.13;;;4.95;100.00
13867;BME280;7003;46.982;15.248;2023-02-20T00:47:47;97919.03;;;5.12;100.00
13867;BME280;7003;46.982;15.248;2023-02-20T00:50:18;97918.00;;;5.08;100.00
13867;BME280;7003;46.982;15.248;2023-02-20T00:52:47;97921.47;;;4.98;100.00
13867;BME280;7003;46.982;15.248;2023-02-20T00:55:15;97915.47;;;4.87;100.00
13867;BME280;7003;46.982;15.248;2023-02-20T00:57:44;97915.41;;;4.97;100.00
13867;BME280;7003;46.982;15.248;2023-02-20T01:00:17;97918.81;;;5.08;100.00
13867;BME280;7003;46.982;15.248;2023-02-20T01:02:44;97919.81;;;5.17;100.00
13867;BME280;7003;46.982;15.248;2023-02-20T01:05:12;97912.19;;;5.16;100.00
13867;BME280;7003;46.982;15.248;2023-02-20T01:07:40;97917.50;;;5.11;100.00
13867;BME280;7003;46.982;15.248;2023-02-20T01:10:08;97910.09;;;5.08;100.00
13867;BME280;7003;46.982;15.248;2023-02-20T01:12:37;97917.91;;;5.28;100.00
13867;BME280;7003;46.982;15.248;2023-02-20T01:15:06;97907.13;;;5.24;100.00
13867;BME280;7003;46.982;15.248;2023-02-20T01:17:36;97916.66;;;5.15;100.00
13867;BME280;7003;46.982;15.248;2023-02-20T01:20:03;97913.75;;;5.12;100.00
13867;BME280;7003;46.982;15.248;2023-02-20T01:22:30;97915.34;;;5.13;100.00
13867;BME280;7003;46.982;15.248;2023-02-20T01:24:58;97919.03;;;5.12;100.00
13867;BME280;7003;46.982;15.248;2023-02-20T01:27:28;97925.56;;;5.29;100.00
13867;BME280;7003;46.982;15.248;2023-02-20T01:29:57;97928.75;;;5.21;100.00
13867;BME280;7003;46.982;15.248;2023-02-20T01:32:25;97935.41;;;5.09;100.00
13867;BME280;7003;46.982;15.248;2023-02-20T01:34:54;97933.84;;;5.08;100.00
13867;BME280;7003;46.982;15.248;2023-02-20T01:37:21;97934.59;;;5.13;100.00
13867;BME280;7003;46.982;15.248;2023-02-20T01:39:50;97939.34;;;5.11;100.00
13867;BME280;7003;46.982;15.248;2023-02-20T01:42:21;97937.53;;;5.07;100.00
13867;BME280;7003;46.982;15.248;2023-02-20T01:44:49;97938.47;;;5.31;100.00
13867;BME280;7003;46.982;15.248;2023-02-20T01:47:19;97949.63;;;5.18;100.00
13867;BME280;7003;46.982;15.248;2023-02-20T01:49:49;97951.22;;;5.19;100.00
13867;BME280;7003;46.982;15.248;2023-02-20T01:52:22;97941.72;;;5.13;100.00
13867;BME280;7003;46.982;15.248;2023-02-20T01:54:55;97945.88;;;5.34;100.00
13867;BME280;7003;46.982;15.248;2023-02-20T01:57:27;97956.63;;;5.42;100.00
13867;BME280;7003;46.982;15.248;2023-02-20T01:59:59;97950.88;;;5.30;100.00
13867;BME280;7003;46.982;15.248;2023-02-20T02:02:32;97947.50;;;5.20;100.00
13867;BME280;7003;46.982;15.248;2023-02-20T02:05:01;97949.97;;;5.50;100.00
13867;BME280;7003;46.982;15.248;2023-02-20T02:07:30;97949.41;;;5.58;100.00
13867;BME280;7003;46.982;15.248;2023-02-20T02:09:59;97944.16;;;5.53;100.00
13867;BME280;7003;46.982;15.248;2023-02-20T02:12:30;97947.94;;;5.37;100.00
13867;BME280;7003;46.982;15.248;2023-02-20T02:14:57;97950.09;;;5.30;100.00
13867;BME280;7003;46.982;15.248;2023-02-20T02:17:49;97943.22;;;5.29;100.00
13867;BME280;7003;46.982;15.248;2023-02-20T02:20:45;97937.72;;;5.25;100.00
13867;BME280;7003;46.982;15.248;2023-02-20T02:24:12;97941.63;;;5.38;100.00
13867;BME280;7003;46.982;15.248;2023-02-20T02:36:33;97953.38;;;5.01;100.00
13867;BME280;7003;46.982;15.248;2023-02-20T02:39:12;97942.31;;;4.99;100.00
13867;BME280;7003;46.982;15.248;2023-02-20T02:41:48;97946.25;;;5.02;100.00
13867;BME280;7003;46.982;15.248;2023-02-20T02:44:22;97943.13;;;4.95;100.00
13867;BME280;7003;46.982;15.248;2023-02-20T02:46:56;97944.44;;;4.92;100.00
13867;BME280;7003;46.982;15.248;2023-02-20T02:49:28;97951.75;;;5.06;100.00
13867;BME280;7003;46.982;15.248;2023-02-20T02:52:03;97950.78;;;4.81;100.00
13867;BME280;7003;46.982;15.248;2023-02-20T02:54:34;97957.69;;;4.72;100.00
13867;BME280;7003;46.982;15.248;2023-02-20T02:57:20;97961.66;;;4.64;100.00
13867;BME280;7003;46.982;15.248;2023-02-20T02:59:53;97962.66;;;4.79;100.00
13867;BME280;7003;46.982;15.248;2023-02-20T03:02:24;97962.38;;;4.80;100.00
13867;BME280;7003;46.982;15.248;2023-02-20T03:04:55;97970.56;;;4.74;100.00
13867;BME280;7003;46.982;15.248;2023-02-20T03:07:27;97969.81;;;4.63;100.00
13867;BME280;7003;46.982;15.248;2023-02-20T03:10:00;97969.84;;;4.48;100.00
13867;BME280;7003;46.982;15.248;2023-02-20T03:12:32;97969.31;;;4.46;100.00
13867;BME280;7003;46.982;15.248;2023-02-20T03:15:05;97971.41;;;4.44;100.00
13867;BME280;7003;46.982;15.248;2023-02-20T03:18:00;97969.31;;;4.36;100.00
13867;BME280;7003;46.982;15.248;2023-02-20T03:20:41;97969.31;;;4.36;100.00
13867;BME280;7003;46.982;15.248;2023-02-20T03:23:14;97965.88;;;4.30;100.00
13867;BME280;7003;46.982;15.248;2023-02-20T03:25:47;97986.69;;;4.26;100.00
13867;BME280;7003;46.982;15.248;2023-02-20T03:28:18;97979.84;;;4.25;100.00
13867;BME280;7003;46.982;15.248;2023-02-20T03:30:53;97986.16;;;4.40;100.00
13867;BME280;7003;46.982;15.248;2023-02-20T03:33:26;97987.22;;;4.13;100.00
13867;BME280;7003;46.982;15.248;2023-02-20T03:36:17;97990.38;;;4.36;100.00
13867;BME280;7003;46.982;15.248;2023-02-20T03:39:10;97995.88;;;4.49;100.00
13867;BME280;7003;46.982;15.248;2023-02-20T03:41:58;97988.28;;;4.38;100.00
13867;BME280;7003;46.982;15.248;2023-02-20T03:44:43;97991.94;;;4.42;100.00
13867;BME280;7003;46.982;15.248;2023-02-20T03:47:13;97999.59;;;4.48;100.00
13867;BME280;7003;46.982;15.248;2023-02-20T03:49:43;98003.56;;;4.31;100.00
13867;BME280;7003;46.982;15.248;2023-02-20T03:52:11;97993.56;;;4.33;100.00
13867;BME280;7003;46.982;15.248;2023-02-20T03:54:40;97998.81;;;4.17;100.00
13867;BME280;7003;46.982;15.248;2023-02-20T03:57:13;98003.53;;;4.20;100.00
13867;BME280;7003;46.982;15.248;2023-02-20T03:59:46;98010.91;;;4.18;100.00
13867;BME280;7003;46.982;15.248;2023-02-20T04:02:22;98015.63;;;4.11;100.00
13867;BME280;7003;46.982;15.248;2023-02-20T04:04:52;98016.72;;;4.10;100.00
13867;BME280;7003;46.982;15.248;2023-02-20T04:07:24;98019.34;;;4.10;100.00
13867;BME280;7003;46.982;15.248;2023-02-20T04:09:58;98022.22;;;4.09;100.00
13867;BME280;7003;46.982;15.248;2023-02-20T04:12:29;98025.38;;;4.06;100.00
13867;BME280;7003;46.982;15.248;2023-02-20T04:14:58;98033.56;;;4.14;100.00
13867;BME280;7003;46.982;15.248;2023-02-20T04:17:29;98026.97;;;4.12;100.00
13867;BME280;7003;46.982;15.248;2023-02-20T04:19:57;98026.47;;;4.25;100.00
13867;BME280;7003;46.982;15.248;2023-02-20T04:22:29;98026.97;;;4.57;100.00
13867;BME280;7003;46.982;15.248;2023-02-20T04:25:00;98033.06;;;4.33;100.00
13867;BME280;7003;46.982;15.248;2023-02-20T04:27:30;98043.84;;;4.31;100.00
13867;BME280;7003;46.982;15.248;2023-02-20T04:30:00;98041.97;;;4.26;100.00
13867;BME280;7003;46.982;15.248;2023-02-20T04:32:28;98036.97;;;4.20;100.00
13867;BME280;7003;46.982;15.248;2023-02-20T04:34:55;98037.22;;;4.13;100.00
13867;BME280;7003;46.982;15.248;2023-02-20T04:37:22;98037.78;;;4.10;100.00
13867;BME280;7003;46.982;15.248;2023-02-20T04:39:49;98038.59;;;4.46;100.00
13867;BME280;7003;46.982;15.248;2023-02-20T04:42:18;98040.16;;;4.37;100.00
13867;BME280;7003;46.982;15.248;2023-02-20T04:44:47;98038.81;;;4.19;100.00
13867;BME280;7003;46.982;15.248;2023-02-20T04:47:16;98038.78;;;4.04;100.00
13867;BME280;7003;46.982;15.248;2023-02-20T04:49:46;98035.63;;;3.87;100.00
13867;BME280;7003;46.982;15.248;2023-02-20T04:52:14;98039.34;;;4.06;100.00
13867;BME280;7003;46.982;15.248;2023-02-20T04:54:41;98033.22;;;3.80;100.00
13867;BME280;7003;46.982;15.248;2023-02-20T04:57:10;98038.81;;;4.14;100.00
13867;BME280;7003;46.982;15.248;2023-02-20T04:59:41;98039.84;;;4.03;100.00
13867;BME280;7003;46.982;15.248;2023-02-20T05:02:08;98042.22;;;4.00;100.00
13867;BME280;7003;46.982;15.248;2023-02-20T05:04:39;98047.41;;;3.79;100.00
13867;BME280;7003;46.982;15.248;2023-02-20T05:07:06;98046.16;;;3.87;100.00
13867;BME280;7003;46.982;15.248;2023-02-20T05:09:33;98060.06;;;3.77;100.00
13867;BME280;7003;46.982;15.248;2023-02-20T05:12:00;98061.94;;;3.87;100.00
13867;BME280;7003;46.982;15.248;2023-02-20T05:14:30;98052.97;;;3.78;100.00
13867;BME280;7003;46.982;15.248;2023-02-20T05:16:59;98048.72;;;3.72;100.00
13867;BME280;7003;46.982;15.248;2023-02-20T05:19:26;98043.44;;;3.62;100.00
13867;BME280;7003;46.982;15.248;2023-02-20T05:21:53;98044.53;;;3.81;100.00
13867;BME280;7003;46.982;15.248;2023-02-20T05:24:42;98034.75;;;3.61;100.00
13867;BME280;7003;46.982;15.248;2023-02-20T05:27:12;98030.72;;;3.43;100.00
13867;BME280;7003;46.982;15.248;2023-02-20T05:29:44;98034.94;;;3.49;100.00
13867;BME280;7003;46.982;15.248;2023-02-20T05:32:13;98035.47;;;3.46;100.00
13867;BME280;7003;46.982;15.248;2023-02-20T05:34:41;98031.53;;;3.44;100.00
13867;BME280;7003;46.982;15.248;2023-02-20T05:37:12;98032.31;;;3.44;100.00
13867;BME280;7003;46.982;15.248;2023-02-20T05:39:41;98032.84;;;3.46;100.00
13867;BME280;7003;46.982;15.248;2023-02-20T05:42:09;98034.16;;;3.44;100.00
13867;BME280;7003;46.982;15.248;2023-02-20T05:44:37;98033.06;;;3.35;100.00
13867;BME280;7003;46.982;15.248;2023-02-20T05:47:06;98038.56;;;3.33;100.00
13867;BME280;7003;46.982;15.248;2023-02-20T05:49:37;98037.50;;;3.24;100.00
13867;BME280;7003;46.982;15.248;2023-02-20T05:52:07;98037.19;;;3.16;100.00
13867;BME280;7003;46.982;15.248;2023-02-20T05:54:44;98038.84;;;3.32;100.00
13867;BME280;7003;46.982;15.248;2023-02-20T05:57:14;98035.91;;;3.28;100.00
13867;BME280;7003;46.982;15.248;2023-02-20T05:59:47;98043.19;;;3.11;100.00
13867;BME280;7003;46.982;15.248;2023-02-20T06:02:17;98054.69;;;3.00;100.00
13867;BME280;7003;46.982;15.248;2023-02-20T06:04:51;98058.88;;;2.96;100.00
13867;BME280;7003;46.982;15.248;2023-02-20T06:07:20;98059.09;;;2.94;100.00
13867;BME280;7003;46.982;15.248;2023-02-20T06:09:52;98061.84;;;2.72;100.00
13867;BME280;7003;46.982;15.248;2023-02-20T06:12:25;98056.34;;;2.69;100.00
13867;BME280;7003;46.982;15.248;2023-02-20T06:14:55;98065.34;;;2.78;100.00
13867;BME280;7003;46.982;15.248;2023-02-20T06:17:25;98070.31;;;2.80;100.00
13867;BME280;7003;46.982;15.248;2023-02-20T06:19:57;98068.00;;;2.83;100.00
13867;BME280;7003;46.982;15.248;2023-02-20T06:22:28;98067.19;;;2.83;100.00
13867;BME280;7003;46.982;15.248;2023-02-20T06:24:57;98065.06;;;2.80;100.00
13867;BME280;7003;46.982;15.248;2023-02-20T06:27:28;98065.38;;;2.88;100.00
13867;BME280;7003;46.982;15.248;2023-02-20T06:29:58;98064.03;;;2.81;100.00
13867;BME280;7003;46.982;15.248;2023-02-20T06:32:31;98068.00;;;2.83;100.00
13867;BME280;7003;46.982;15.248;2023-02-20T06:35:04;98079.88;;;2.96;100.00
13867;BME280;7003;46.982;15.248;2023-02-20T06:37:34;98068.69;;;3.10;100.00
13867;BME280;7003;46.982;15.248;2023-02-20T06:40:08;98073.66;;;3.07;100.00
13867;BME280;7003;46.982;15.248;2023-02-20T06:42:41;98074.88;;;2.94;100.00
13867;BME280;7003;46.982;15.248;2023-02-20T06:45:12;98082.03;;;3.04;100.00
13867;BME280;7003;46.982;15.248;2023-02-20T06:47:42;98076.13;;;3.24;100.00
13867;BME280;7003;46.982;15.248;2023-02-20T06:50:17;98080.38;;;3.35;100.00
13867;BME280;7003;46.982;15.248;2023-02-20T06:52:47;98096.50;;;3.48;100.00
13867;BME280;7003;46.982;15.248;2023-02-20T06:55:18;98093.72;;;3.70;100.00
13867;BME280;7003;46.982;15.248;2023-02-20T06:57:51;98096.66;;;3.84;100.00
13867;BME280;7003;46.982;15.248;2023-02-20T07:00:22;98098.78;;;3.92;100.00
13867;BME280;7003;46.982;15.248;2023-02-20T07:02:52;98107.19;;;3.89;100.00
13867;BME280;7003;46.982;15.248;2023-02-20T07:05:24;98102.47;;;3.91;100.00
13867;BME280;7003;46.982;15.248;2023-02-20T07:07:55;98095.38;;;3.92;100.00
13867;BME280;7003;46.982;15.248;2023-02-20T07:10:24;98089.31;;;3.91;100.00
13867;BME280;7003;46.982;15.248;2023-02-20T07:12:53;98086.72;;;4.11;100.00
13867;BME280;7003;46.982;15.248;2023-02-20T07:15:23;98085.47;;;4.39;100.00
13867;BME280;7003;46.982;15.248;2023-02-20T07:17:52;98080.97;;;4.50;100.00
13867;BME280;7003;46.982;15.248;2023-02-20T07:20:24;98076.50;;;4.81;100.00
13867;BME280;7003;46.982;15.248;2023-02-20T07:22:54;98082.03;;;5.10;100.00
13867;BME280;7003;46.982;15.248;2023-02-20T07:25:25;98082.00;;;5.20;100.00
13867;BME280;7003;46.982;15.248;2023-02-20T07:27:54;98071.16;;;5.31;100.00
13867;BME280;7003;46.982;15.248;2023-02-20T07:30:24;98069.56;;;5.40;100.00
13867;BME280;7003;46.982;15.248;2023-02-20T07:32:54;98076.94;;;5.49;100.00
13867;BME280;7003;46.982;15.248;2023-02-20T07:35:32;98075.56;;;5.61;100.00
13867;BME280;7003;46.982;15.248;2023-02-20T07:38:04;98069.94;;;5.73;100.00
13867;BME280;7003;46.982;15.248;2023-02-20T07:40:37;98066.25;;;5.74;100.00
13867;BME280;7003;46.982;15.248;2023-02-20T07:43:11;98073.34;;;5.94;100.00
13867;BME280;7003;46.982;15.248;2023-02-20T07:45:40;98073.81;;;6.01;100.00
13867;BME280;7003;46.982;15.248;2023-02-20T07:48:10;98065.63;;;6.02;100.00
13867;BME280;7003;46.982;15.248;2023-02-20T07:50:42;98068.41;;;6.26;100.00
13867;BME280;7003;46.982;15.248;2023-02-20T07:53:15;98077.81;;;6.37;100.00
13867;BME280;7003;46.982;15.248;2023-02-20T07:55:46;98072.41;;;6.57;100.00
13867;BME280;7003;46.982;15.248;2023-02-20T07:58:16;98071.50;;;6.72;100.00
13867;BME280;7003;46.982;15.248;2023-02-20T08:00:46;98069.97;;;6.95;100.00
13867;BME280;7003;46.982;15.248;2023-02-20T08:03:17;98071.50;;;7.01;100.00
13867;BME280;7003;46.982;15.248;2023-02-20T08:05:50;98067.38;;;7.19;100.00
13867;BME280;7003;46.982;15.248;2023-02-20T08:08:18;98063.78;;;7.05;100.00
13867;BME280;7003;46.982;15.248;2023-02-20T08:10:49;98065.28;;;7.40;100.00
13867;BME280;7003;46.982;15.248;2023-02-20T08:13:17;98070.78;;;7.67;100.00
13867;BME280;7003;46.982;15.248;2023-02-20T08:15:48;98057.38;;;7.82;100.00
13867;BME280;7003;46.982;15.248;2023-02-20T08:18:16;98060.97;;;7.91;100.00
13867;BME280;7003;46.982;15.248;2023-02-20T08:20:44;98055.38;;;7.74;100.00
13867;BME280;7003;46.982;15.248;2023-02-20T08:23:18;98054.81;;;7.29;100.00
13867;BME280;7003;46.982;15.248;2023-02-20T08:25:46;98049.56;;;7.72;100.00
13867;BME280;7003;46.982;15.248;2023-02-20T08:28:14;98042.72;;;8.08;100.00
13867;BME280;7003;46.982;15.248;2023-02-20T08:30:42;98035.84;;;8.45;100.00
13867;BME280;7003;46.982;15.248;2023-02-20T08:33:13;98035.00;;;8.31;100.00
13867;BME280;7003;46.982;15.248;2023-02-20T08:35:41;98030.94;;;8.52;100.00
13867;BME280;7003;46.982;15.248;2023-02-20T08:38:25;98020.19;;;9.22;100.00
13867;BME280;7003;46.982;15.248;2023-02-20T08:40:53;98015.47;;;9.46;100.00
13867;BME280;7003;46.982;15.248;2023-02-20T08:43:24;98004.81;;;8.92;100.00
13867;BME280;7003;46.982;15.248;2023-02-20T08:45:51;97993.41;;;8.45;100.00
13867;BME280;7003;46.982;15.248;2023-02-20T08:48:20;97992.22;;;8.83;100.00
13867;BME280;7003;46.982;15.248;2023-02-20T08:50:47;97985.94;;;9.61;100.00
13867;BME280;7003;46.982;15.248;2023-02-20T08:53:15;97981.56;;;10.29;100.00
13867;BME280;7003;46.982;15.248;2023-02-20T08:55:45;97983.59;;;10.85;100.00
13867;BME280;7003;46.982;15.248;2023-02-20T08:58:18;97982.84;;;11.33;100.00
13867;BME280;7003;46.982;15.248;2023-02-20T09:00:46;97968.06;;;11.66;100.00
13867;BME280;7003;46.982;15.248;2023-02-20T09:03:13;97955.41;;;11.98;100.00
13867;BME280;7003;46.982;15.248;2023-02-20T09:05:42;97954.88;;;11.52;100.00
13867;BME280;7003;46.982;15.248;2023-02-20T09:08:10;97954.22;;;11.47;100.00
13867;BME280;7003;46.982;15.248;2023-02-20T09:10:38;97951.63;;;11.90;100.00
13867;BME280;7003;46.982;15.248;2023-02-20T09:13:07;97955.50;;;12.53;100.00
13867;BME280;7003;46.982;15.248;2023-02-20T09:15:38;97953.22;;;12.81;100.00
13867;BME280;7003;46.982;15.248;2023-02-20T09:18:07;97943.53;;;13.14;99.96
13867;BME280;7003;46.982;15.248;2023-02-20T09:20:39;97949.56;;;13.32;92.23
13867;BME280;7003;46.982;15.248;2023-02-20T09:23:09;97940.41;;;13.41;88.68
13867;BME280;7003;46.982;15.248;2023-02-20T09:25:38;97930.19;;;13.43;87.09
13867;BME280;7003;46.982;15.248;2023-02-20T09:28:07;97940.09;;;13.64;83.42
13867;BME280;7003;46.982;15.248;2023-02-20T09:30:35;97940.28;;;13.59;79.89
13867;BME280;7003;46.982;15.248;2023-02-20T09:33:03;97943.31;;;13.78;80.70
13867;BME280;7003;46.982;15.248;2023-02-20T09:35:33;97934.31;;;13.62;76.78
13867;BME280;7003;46.982;15.248;2023-02-20T09:38:02;97936.66;;;12.96;83.90
13867;BME280;7003;46.982;15.248;2023-02-20T09:40:32;97926.28;;;12.56;85.46
13867;BME280;7003;46.982;15.248;2023-02-20T09:43:12;97920.56;;;12.20;91.79
13867;BME280;7003;46.982;15.248;2023-02-20T09:45:48;97921.34;;;12.12;95.95
13867;BME280;7003;46.982;15.248;2023-02-20T09:48:34;97911.19;;;13.07;86.34
13867;BME280;7003;46.982;15.248;2023-02-20T09:51:10;97906.00;;;13.61;80.94
13867;BME280;7003;46.982;15.248;2023-02-20T09:53:46;97900.84;;;13.76;78.64
13867;BME280;7003;46.982;15.248;2023-02-20T09:56:20;97905.81;;;13.66;79.72
13867;BME280;7003;46.982;15.248;2023-02-20T09:58:56;97896.16;;;13.73;79.01
13867;BME280;7003;46.982;15.248;2023-02-20T10:01:27;97894.59;;;13.72;77.20
13867;BME280;7003;46.982;15.248;2023-02-20T10:04:01;97891.84;;;13.81;79.49
13867;BME280;7003;46.982;15.248;2023-02-20T10:06:33;97897.53;;;14.12;77.34
13867;BME280;7003;46.982;15.248;2023-02-20T10:09:03;97898.31;;;13.59;74.51
13867;BME280;7003;46.982;15.248;2023-02-20T10:12:06;97888.22;;;12.30;80.12
13867;BME280;7003;46.982;15.248;2023-02-20T10:14:56;97887.63;;;12.62;80.02
13867;BME280;7003;46.982;15.248;2023-02-20T10:17:39;97895.03;;;12.95;76.73
13867;BME280;7003;46.982;15.248;2023-02-20T10:20:16;97886.97;;;13.83;73.91
13867;BME280;7003;46.982;15.248;2023-02-20T10:22:54;97889.69;;;14.97;67.25
13867;BME280;7003;46.982;15.248;2023-02-20T10:25:29;97870.88;;;14.37;66.75
13867;BME280;7003;46.982;15.248;2023-02-20T10:28:03;97883.59;;;14.07;66.10
13867;BME280;7003;46.982;15.248;2023-02-20T10:30:38;97876.22;;;14.37;63.45
13867;BME280;7003;46.982;15.248;2023-02-20T10:33:23;97874.94;;;13.89;63.52
13867;BME280;7003;46.982;15.248;2023-02-20T10:35:57;97880.72;;;13.37;64.15
13867;BME280;7003;46.982;15.248;2023-02-20T10:38:33;97881.34;;;13.34;66.38
13867;BME280;7003;46.982;15.248;2023-02-20T10:41:08;97874.03;;;14.39;58.81
13867;BME280;7003;46.982;15.248;2023-02-20T10:43:45;97872.78;;;14.48;59.25
13867;BME280;7003;46.982;15.248;2023-02-20T10:46:20;97868.66;;;15.36;58.03
13867;BME280;7003;46.982;15.248;2023-02-20T10:48:54;97861.63;;;14.01;56.47
13867;BME280;7003;46.982;15.248;2023-02-20T10:51:26;97867.47;;;13.11;63.28
13867;BME280;7003;46.982;15.248;2023-02-20T10:54:02;97865.94;;;13.02;57.98
13867;BME280;7003;46.982;15.248;2023-02-20T10:56:34;97862.25;;;13.65;57.19
13867;BME280;7003;46.982;15.248;2023-02-20T10:59:08;97855.41;;;14.09;55.08
13867;BME280;7003;46.982;15.248;2023-02-20T11:01:39;97856.25;;;14.34;55.80
13867;BME280;7003;46.982;15.248;2023-02-20T11:04:10;97839.91;;;15.09;55.85
13867;BME280;7003;46.982;15.248;2023-02-20T11:06:44;97842.03;;;15.67;55.39
13867;BME280;7003;46.982;15.248;2023-02-20T11:09:12;97835.53;;;16.40;52.60
13867;BME280;7003;46.982;15.248;2023-02-20T11:11:41;97815.59;;;16.41;53.27
13867;BME280;7003;46.982;15.248;2023-02-20T11:14:13;97819.75;;;17.01;52.93
13867;BME280;7003;46.982;15.248;2023-02-20T11:16:47;97813.16;;;17.34;48.78
13867;BME280;7003;46.982;15.248;2023-02-20T11:19:22;97816.06;;;18.02;47.57
13867;BME280;7003;46.982;15.248;2023-02-20T11:21:54;97819.78;;;18.17;46.61
13867;BME280;7003;46.982;15.248;2023-02-20T11:24:31;97803.53;;;16.82;48.57
13867;BME280;7003;46.982;15.248;2023-02-20T11:27:05;97798.47;;;17.50;48.78
13867;BME280;7003;46.982;15.248;2023-02-20T11:29:40;97795.13;;;18.60;46.69
13867;BME280;7003;46.982;15.248;2023-02-20T11:32:27;97792.31;;;19.62;43.78
13867;BME280;7003;46.982;15.248;2023-02-20T11:35:18;97785.03;;;19.36;43.87
13867;BME280;7003;46.982;15.248;2023-02-20T11:37:51;97784.56;;;19.60;40.51
13867;BME280;7003;46.982;15.248;2023-02-20T11:40:38;97772.03;;;20.12;42.45
13867;BME280;7003;46.982;15.248;2023-02-20T11:43:10;97777.72;;;19.37;40.61
13867;BME280;7003;46.982;15.248;2023-02-20T11:45:43;97778.81;;;19.02;41.63
13867;BME280;7003;46.982;15.248;2023-02-20T11:48:17;97768.22;;;19.16;41.62
13867;BME280;7003;46.982;15.248;2023-02-20T11:50:46;97753.44;;;19.37;40.88
13867;BME280;7003;46.982;15.248;2023-02-20T11:53:20;97752.75;;;17.12;45.03
13867;BME280;7003;46.982;15.248;2023-02-20T11:56:08;97752.56;;;17.01;46.02
13867;BME280;7003;46.982;15.248;2023-02-20T11:58:40;97744.50;;;17.20;45.71
13867;BME280;7003;46.982;15.248;2023-02-20T12:01:27;97734.06;;;16.65;48.82
13867;BME280;7003;46.982;15.248;2023-02-20T12:04:00;97732.81;;;16.93;48.68
13867;BME280;7003;46.982;15.248;2023-02-20T12:06:40;97730.69;;;17.03;47.72
13867;BME280;7003;46.982;15.248;2023-02-20T12:09:11;97716.97;;;16.22;48.98
13867;BME280;7003;46.982;15.248;2023-02-20T12:11:41;97714.72;;;16.24;49.33
13867;BME280;7003;46.982;15.248;2023-02-20T12:14:12;97703.22;;;15.92;51.14
13867;BME280;7003;46.982;15.248;2023-02-20T12:17:01;97693.00;;;15.98;51.40
13867;BME280;7003;46.982;15.248;2023-02-20T12:19:46;97699.81;;;16.11;49.50
13867;BME280;7003;46.982;15.248;2023-02-20T12:22:21;97694.19;;;17.02;51.05
13867;BME280;7003;46.982;15.248;2023-02-20T12:25:03;97690.56;;;16.75;47.85
13867;BME280;7003;46.982;15.248;2023-02-20T12:27:43;97686.59;;;16.69;49.12
13867;BME280;7003;46.982;15.248;2023-02-20T12:30:40;97668.03;;;16.29;47.70
13867;BME280;7003;46.982;15.248;2023-02-20T12:33:30;97663.50;;;16.48;45.86
13867;BME280;7003;46.982;15.248;2023-02-20T12:36:12;97652.41;;;15.84;49.01
13867;BME280;7003;46.982;15.248;2023-02-20T12:38:48;97635.53;;;15.83;49.72
13867;BME280;7003;46.982;15.248;2023-02-20T12:41:43;97631.53;;;16.08;48.07
13867;BME280;7003;46.982;15.248;2023-02-20T12:44:37;97638.78;;;16.24;48.43
13867;BME280;7003;46.982;15.248;2023-02-20T12:47:17;97628.06;;;16.24;45.53
13867;BME280;7003;46.982;15.248;2023-02-20T12:50:17;97629.53;;;17.56;44.55
13867;BME280;7003;46.982;15.248;2023-02-20T12:53:09;97625.44;;;17.20;45.56
13867;BME280;7003;46.982;15.248;2023-02-20T12:55:45;97628.00;;;17.36;44.74
13867;BME280;7003;46.982;15.248;2023-02-20T12:58:27;97627.06;;;17.24;42.94
13867;BME280;7003;46.982;15.248;2023-02-20T13:01:00;97621.09;;;17.35;42.24
13867;BME280;7003;46.982;15.248;2023-02-20T13:03:45;97626.25;;;17.01;43.20
13867;BME280;7003;46.982;15.248;2023-02-20T13:06:24;97619.50;;;16.18;46.74
13867;BME280;7003;46.982;15.248;2023-02-20T13:09:00;97622.41;;;16.83;45.91
13867;BME280;7003;46.982;15.248;2023-02-20T13:11:36;97618.13;;;16.08;48.89
13867;BME280;7003;46.982;15.248;2023-02-20T13:14:17;97606.00;;;16.14;48.49
13867;BME280;7003;46.982;15.248;2023-02-20T13:16:51;97615.78;;;16.77;45.44
13867;BME280;7003;46.982;15.248;2023-02-20T13:19:28;97609.09;;;17.51;45.38
13867;BME280;7003;46.982;15.248;2023-02-20T13:21:58;97617.97;;;17.10;44.47
13867;BME280;7003;46.982;15.248;2023-02-20T13:24:34;97614.63;;;17.16;44.71
13867;BME280;7003;46.982;15.248;2023-02-20T13:27:05;97614.47;;;17.51;45.38
13867;BME280;7003;46.982;15.248;2023-02-20T13:29:35;97603.19;;;17.88;43.61
13867;BME280;7003;46.982;15.248;2023-02-20T13:32:24;97589.28;;;18.08;43.27
13867;BME280;7003;46.982;15.248;2023-02-20T13:34:54;97597.53;;;17.96;40.33
13867;BME280;7003;46.982;15.248;2023-02-20T13:37:51;97601.88;;;17.33;44.01
13867;BME280;7003;46.982;15.248;2023-02-20T13:40:37;97594.13;;;16.89;43.89